createdAt,value
2022-12-03T05:07:40.749Z,22.58
2022-12-03T05:10:09.663Z,25.42
2022-12-03T05:12:36.972Z,22.58
2022-12-03T05:15:05.712Z,22.42
2022-12-03T05:17:33.679Z,21.38
2022-12-03T05:20:19.400Z,21.52
2022-12-03T05:22:46.695Z,21.75
2022-12-03T05:25:14.019Z,21.50
2022-12-03T05:27:41.808Z,22.27
2022-12-03T05:30:09.628Z,21.83
2022-12-03T05:32:36.899Z,26.30
2022-12-03T05:35:04.491Z,22.02
2022-12-03T05:37:31.887Z,20.08
2022-12-03T05:39:59.921Z,19.52
2022-12-03T05:42:46.083Z,17.80
2022-12-03T05:45:13.310Z,22.38
2022-12-03T05:47:40.847Z,22.73
2022-12-03T05:50:08.693Z,22.77
2022-12-03T05:52:36.084Z,21.02
2022-12-03T05:55:03.810Z,22.60
2022-12-03T05:57:31.074Z,23.80
2022-12-03T05:59:58.382Z,25.20
2022-12-03T06:02:25.744Z,22.90
2022-12-03T06:04:54.028Z,23.42
2022-12-03T06:07:21.594Z,21.15
2022-12-03T06:09:48.824Z,26.95
2022-12-03T06:12:16.152Z,18.98
2022-12-03T06:14:43.479Z,24.35
2022-12-03T06:17:11.534Z,22.88
2022-12-03T06:19:38.774Z,22.75
2022-12-03T06:22:06.089Z,21.60
2022-12-03T06:24:33.816Z,25.40
2022-12-03T06:27:01.102Z,26.05
2022-12-03T06:29:28.407Z,24.40
2022-12-03T06:31:55.698Z,24.17
2022-12-03T06:34:23.468Z,24.55
2022-12-03T06:36:50.849Z,23.00
2022-12-03T06:39:18.246Z,25.25
2022-12-03T06:41:45.627Z,23.48
2022-12-03T06:44:13.598Z,31.38
2022-12-03T06:46:41.533Z,44.85
2022-12-03T06:49:09.483Z,43.42
2022-12-03T06:51:37.428Z,34.58
2022-12-03T06:54:05.688Z,26.42
2022-12-03T06:56:37.880Z,26.60
2022-12-03T06:59:09.235Z,35.83
2022-12-03T07:01:36.529Z,30.17
2022-12-03T07:04:04.238Z,25.15
2022-12-03T07:06:31.718Z,24.20
2022-12-03T07:08:59.064Z,22.10
2022-12-03T07:11:32.210Z,22.52
2022-12-03T07:14:05.188Z,30.17
2022-12-03T07:16:37.977Z,70.82
2022-12-03T07:19:06.762Z,75.20
2022-12-03T07:21:34.425Z,36.47
2022-12-03T07:24:01.685Z,32.83
2022-12-03T07:26:29.053Z,30.83
2022-12-03T07:28:57.216Z,30.30
2022-12-03T07:31:24.719Z,28.15
2022-12-03T07:33:52.080Z,33.38
2022-12-03T07:36:19.398Z,24.27
2022-12-03T07:38:46.670Z,29.95
2022-12-03T07:41:13.952Z,24.02
2022-12-03T07:43:41.570Z,24.38
2022-12-03T07:46:09.144Z,29.90
2022-12-03T07:48:36.888Z,33.42
2022-12-03T07:51:04.286Z,51.10
2022-12-03T07:53:31.545Z,29.75
2022-12-03T07:55:58.762Z,25.10
2022-12-03T07:58:26.011Z,23.05
2022-12-03T08:00:53.357Z,26.48
2022-12-03T08:03:20.851Z,30.60
2022-12-03T08:05:49.091Z,32.90
2022-12-03T08:08:16.588Z,33.85
2022-12-03T08:10:43.885Z,34.40
2022-12-03T08:13:14.433Z,31.95
2022-12-03T08:15:42.586Z,30.73
2022-12-03T08:18:19.804Z,27.00
2022-12-03T08:20:49.719Z,32.22
2022-12-03T08:23:23.328Z,28.83
2022-12-03T08:25:51.856Z,33.80
2022-12-03T08:28:22.484Z,38.70
2022-12-03T08:31:07.912Z,46.75
2022-12-03T08:33:37.067Z,40.95
2022-12-03T08:36:24.061Z,34.65
2022-12-03T08:38:57.802Z,35.42
2022-12-03T08:41:44.507Z,39.50
2022-12-03T08:44:25.897Z,39.63
2022-12-03T08:47:10.244Z,36.83
2022-12-03T08:49:37.714Z,41.60
2022-12-03T08:52:17.899Z,38.08
2022-12-03T08:54:57.436Z,39.83
2022-12-03T08:57:27.218Z,35.20
2022-12-03T09:00:01.135Z,40.95
2022-12-03T09:02:34.649Z,36.85
2022-12-03T09:05:17.077Z,33.17
2022-12-03T09:07:44.555Z,33.33
2022-12-03T09:10:12.183Z,39.45
2022-12-03T09:12:39.777Z,40.25
2022-12-03T09:15:07.785Z,41.58
2022-12-03T09:17:35.098Z,40.25
2022-12-03T09:20:02.437Z,34.05
2022-12-03T09:22:30.270Z,38.90
2022-12-03T09:24:57.517Z,32.55
2022-12-03T09:27:25.638Z,32.72
2022-12-03T09:29:53.001Z,32.03
2022-12-03T09:32:20.865Z,37.45
2022-12-03T09:34:48.590Z,35.40
2022-12-03T09:37:16.342Z,34.63
2022-12-03T09:39:44.023Z,33.58
2022-12-03T09:42:11.544Z,32.75
2022-12-03T09:44:39.148Z,40.65
2022-12-03T09:47:07.596Z,42.47
2022-12-03T09:49:37.670Z,38.17
2022-12-03T09:52:07.278Z,44.22
2022-12-03T09:54:34.738Z,40.88
2022-12-03T09:57:04.281Z,40.50
2022-12-03T09:59:34.326Z,43.72
2022-12-03T10:02:03.113Z,37.85
2022-12-03T10:04:30.624Z,36.72
2022-12-03T10:06:59.008Z,43.03
2022-12-03T10:09:28.823Z,41.88
2022-12-03T10:11:59.276Z,52.92
2022-12-03T10:14:27.714Z,43.38
2022-12-03T10:16:56.367Z,42.75
2022-12-03T10:19:27.628Z,45.05
2022-12-03T10:21:55.770Z,40.97
2022-12-03T10:24:32.293Z,38.10
2022-12-03T10:27:24.117Z,44.35
2022-12-03T10:30:03.104Z,51.83
2022-12-03T10:32:51.030Z,41.55
2022-12-03T10:35:24.411Z,38.67
2022-12-03T10:38:05.288Z,37.53
2022-12-03T10:40:34.510Z,37.45
2022-12-03T10:43:27.498Z,43.28
2022-12-03T10:46:04.267Z,40.17
2022-12-03T10:48:32.178Z,41.30
2022-12-03T10:51:11.342Z,33.25
2022-12-03T10:53:41.090Z,36.45
2022-12-03T10:56:17.427Z,41.33
2022-12-03T10:58:44.782Z,34.53
2022-12-03T11:01:19.758Z,43.08
2022-12-03T11:03:47.867Z,43.38
2022-12-03T11:06:21.512Z,40.58
2022-12-03T11:08:57.623Z,36.28
2022-12-03T11:11:30.146Z,35.42
2022-12-03T11:14:02.538Z,41.22
2022-12-03T11:16:38.994Z,36.75
2022-12-03T11:19:12.586Z,59.78
2022-12-03T11:22:09.815Z,40.08
2022-12-03T11:24:40.264Z,39.50
2022-12-03T11:27:10.563Z,38.03
2022-12-03T11:30:00.024Z,38.45
2022-12-03T11:32:39.702Z,38.08
2022-12-03T11:35:17.007Z,36.60
2022-12-03T11:37:44.361Z,34.95
2022-12-03T11:40:17.880Z,39.40
2022-12-03T11:42:47.317Z,31.85
2022-12-03T11:45:26.726Z,37.50
2022-12-03T11:48:00.391Z,37.58
2022-12-03T11:50:43.888Z,38.05
2022-12-03T11:53:19.491Z,37.97
2022-12-03T11:55:53.291Z,34.60
2022-12-03T11:58:28.106Z,35.50
2022-12-03T12:00:58.248Z,32.55
2022-12-03T12:03:33.403Z,35.55
2022-12-03T12:06:27.883Z,35.15
2022-12-03T12:09:04.198Z,34.28
2022-12-03T12:11:47.798Z,31.58
2022-12-03T12:14:26.447Z,31.10
2022-12-03T12:16:55.230Z,34.97
2022-12-03T12:19:51.077Z,34.95
2022-12-03T12:22:42.742Z,33.30
2022-12-03T12:25:37.575Z,34.17
2022-12-03T12:28:05.488Z,36.65
2022-12-03T12:30:33.400Z,45.15
2022-12-03T12:33:23.155Z,36.33
2022-12-03T12:35:51.479Z,34.75
2022-12-03T12:38:20.712Z,30.95
2022-12-03T12:40:50.542Z,34.45
2022-12-03T12:43:32.919Z,38.58
2022-12-03T12:46:38.657Z,33.97
2022-12-03T12:48:59.392Z,37.28
2022-12-03T12:51:27.400Z,31.80
2022-12-03T12:53:57.408Z,32.83
2022-12-03T12:56:32.932Z,36.10
2022-12-03T12:59:29.435Z,42.50
2022-12-03T13:01:57.271Z,33.28
2022-12-03T13:04:26.540Z,34.83
2022-12-03T13:06:54.596Z,35.58
2022-12-03T13:09:24.705Z,38.35
2022-12-03T13:11:55.827Z,42.17
2022-12-03T13:14:26.106Z,50.70
2022-12-03T13:16:56.664Z,45.85
2022-12-03T13:19:24.058Z,40.78
2022-12-03T13:22:12.311Z,38.03
2022-12-03T13:24:54.608Z,39.03
2022-12-03T13:27:29.957Z,37.80
2022-12-03T13:30:06.980Z,35.45
2022-12-03T13:32:37.692Z,37.38
2022-12-03T13:35:26.613Z,49.40
2022-12-03T13:37:54.708Z,39.80
2022-12-03T13:40:22.514Z,49.50
2022-12-03T13:42:50.422Z,47.78
2022-12-03T13:45:28.308Z,44.88
2022-12-03T13:47:59.033Z,37.70
2022-12-03T13:50:34.562Z,33.95
2022-12-03T13:53:13.621Z,32.60
2022-12-03T13:55:47.917Z,32.38
2022-12-03T13:58:15.270Z,36.60
2022-12-03T14:00:43.504Z,34.38
2022-12-03T14:03:11.079Z,35.50
2022-12-03T14:05:39.029Z,36.30
2022-12-03T14:08:06.505Z,39.08
2022-12-03T14:10:34.576Z,42.83
2022-12-03T14:13:01.992Z,34.70
2022-12-03T14:15:29.895Z,36.15
2022-12-03T14:17:57.492Z,38.42
2022-12-03T14:20:24.824Z,32.55
2022-12-03T14:22:57.732Z,30.65
2022-12-03T14:25:27.069Z,38.05
2022-12-03T14:27:57.608Z,35.20
2022-12-03T14:30:25.383Z,34.60
2022-12-03T14:32:55.630Z,33.95
2022-12-03T14:35:22.855Z,32.35
2022-12-03T14:37:50.164Z,28.73
2022-12-03T14:40:21.450Z,35.78
2022-12-03T14:45:16.399Z,37.22
2022-12-03T14:47:44.186Z,40.92
2022-12-03T14:50:14.390Z,34.65
2022-12-03T14:52:43.253Z,48.03
2022-12-03T14:55:10.523Z,50.08
2022-12-03T14:57:38.369Z,34.00
2022-12-03T15:00:07.520Z,35.28
2022-12-03T15:02:35.331Z,37.75
2022-12-03T15:05:02.738Z,32.10
2022-12-03T15:07:31.836Z,27.65
2022-12-03T15:09:59.181Z,30.88
2022-12-03T15:12:26.918Z,29.70
2022-12-03T15:14:54.622Z,31.35
2022-12-03T15:17:30.894Z,30.27
2022-12-03T15:19:59.654Z,29.83
2022-12-03T15:22:27.033Z,29.42
2022-12-03T15:24:54.531Z,36.42
2022-12-03T15:27:21.991Z,33.38
2022-12-03T15:29:49.724Z,33.78
2022-12-03T15:32:16.990Z,28.25
2022-12-03T15:34:44.748Z,33.35
2022-12-03T15:37:12.159Z,29.80
2022-12-03T15:39:45.106Z,32.63
2022-12-03T15:42:15.846Z,33.50
2022-12-03T15:44:43.118Z,39.13
2022-12-03T15:47:11.133Z,30.67
2022-12-03T15:49:38.478Z,27.92
2022-12-03T15:52:07.778Z,27.25
2022-12-03T15:54:35.144Z,28.92
2022-12-03T15:57:02.451Z,37.85
2022-12-03T15:59:29.786Z,37.35
2022-12-03T16:01:57.141Z,30.00
2022-12-03T16:04:24.549Z,45.47
2022-12-03T16:06:51.944Z,38.45
2022-12-03T16:09:25.292Z,44.75
2022-12-03T16:11:54.387Z,48.30
2022-12-03T16:14:22.242Z,50.17
2022-12-03T16:16:49.643Z,36.67
2022-12-03T16:19:16.936Z,30.70
2022-12-03T16:21:44.692Z,51.47
2022-12-03T16:24:12.443Z,31.98
2022-12-03T16:26:40.186Z,30.58
2022-12-03T16:29:07.508Z,34.22
2022-12-03T16:31:34.962Z,44.05
2022-12-03T16:34:02.795Z,29.45
2022-12-03T16:36:30.554Z,26.05
2022-12-03T16:38:58.131Z,26.30
2022-12-03T16:41:25.582Z,30.73
2022-12-03T16:43:52.919Z,26.05
2022-12-03T16:46:23.358Z,25.90
2022-12-03T16:48:52.950Z,28.38
2022-12-03T16:51:20.315Z,28.17
2022-12-03T16:53:48.379Z,29.63
2022-12-03T16:56:15.976Z,31.42
2022-12-03T16:58:44.198Z,34.65
2022-12-03T17:01:11.849Z,39.13
2022-12-03T17:03:39.164Z,49.33
2022-12-03T17:06:06.703Z,42.67
2022-12-03T17:08:34.002Z,31.55
2022-12-03T17:11:03.118Z,29.75
2022-12-03T17:13:30.891Z,44.10
2022-12-03T17:15:58.905Z,29.38
2022-12-03T17:18:26.386Z,25.05
2022-12-03T17:20:53.753Z,28.17
2022-12-03T17:23:21.132Z,36.85
2022-12-03T17:25:48.569Z,27.90
2022-12-03T17:28:16.350Z,26.33
2022-12-03T17:30:44.363Z,24.55
2022-12-03T17:33:12.259Z,25.48
2022-12-03T17:35:40.290Z,27.52
2022-12-03T17:38:09.021Z,26.75
2022-12-03T17:40:36.352Z,31.40
2022-12-03T17:43:05.894Z,46.80
2022-12-03T17:45:33.519Z,40.80
2022-12-03T17:48:00.833Z,53.90
2022-12-03T17:50:28.079Z,52.90
2022-12-03T17:52:55.451Z,44.22
2022-12-03T17:55:31.274Z,42.60
2022-12-03T17:58:01.112Z,42.17
2022-12-03T18:00:28.390Z,42.17
2022-12-03T18:02:56.063Z,48.03
2022-12-03T18:05:23.363Z,46.15
2022-12-03T18:07:50.904Z,44.53
2022-12-03T18:10:18.514Z,46.65
2022-12-03T18:12:46.375Z,47.20
2022-12-03T18:15:16.281Z,41.45
2022-12-03T18:17:43.598Z,42.20
2022-12-03T18:20:11.309Z,42.03
2022-12-03T18:22:39.207Z,38.28
2022-12-03T18:25:07.635Z,41.10
2022-12-03T18:27:35.194Z,43.03
2022-12-03T18:30:03.051Z,40.75
2022-12-03T18:32:30.802Z,49.50
2022-12-03T18:34:58.688Z,43.97
2022-12-03T18:37:29.527Z,46.47
2022-12-03T18:39:58.169Z,45.97
2022-12-03T18:42:27.196Z,42.45
2022-12-03T18:44:56.767Z,44.22
2022-12-03T18:47:28.145Z,39.38
2022-12-03T18:49:56.256Z,40.50
2022-12-03T18:52:24.933Z,41.22
2022-12-03T18:54:52.743Z,41.53
2022-12-03T18:57:20.147Z,41.47
2022-12-03T18:59:47.595Z,37.45
2022-12-03T19:05:09.274Z,44.05
2022-12-03T19:07:36.967Z,43.13
2022-12-03T19:10:05.058Z,55.30
2022-12-03T19:12:33.054Z,58.00
2022-12-03T19:15:02.591Z,59.42
2022-12-03T19:17:30.452Z,53.15
2022-12-03T19:19:58.123Z,46.78
2022-12-03T19:22:25.961Z,45.25
2022-12-03T19:24:53.229Z,42.65
2022-12-03T19:27:20.482Z,42.58
2022-12-03T19:29:48.859Z,45.83
2022-12-03T19:32:16.152Z,53.35
2022-12-03T19:34:43.393Z,60.15
2022-12-03T19:37:11.139Z,73.72
2022-12-03T19:39:38.418Z,69.85
2022-12-03T19:42:05.759Z,54.65
2022-12-03T19:44:34.151Z,48.85
2022-12-03T19:47:01.835Z,38.22
2022-12-03T19:49:29.537Z,38.22
2022-12-03T19:51:57.068Z,37.70
2022-12-03T19:54:24.568Z,36.47
2022-12-03T19:56:52.271Z,37.97
2022-12-03T19:59:19.526Z,43.33
2022-12-03T20:01:47.021Z,36.25
2022-12-03T20:04:14.347Z,43.45
2022-12-03T20:06:42.098Z,41.58
2022-12-03T20:09:17.193Z,35.88
2022-12-03T20:11:45.776Z,41.78
2022-12-03T20:14:15.794Z,48.28
2022-12-03T20:16:44.747Z,37.78
2022-12-03T20:19:15.047Z,42.20
2022-12-03T20:21:43.906Z,43.90
2022-12-03T20:24:15.122Z,39.60
2022-12-03T20:26:43.265Z,49.20
2022-12-03T20:29:10.612Z,40.35
2022-12-03T20:31:38.041Z,41.45
2022-12-03T20:34:07.259Z,37.50
2022-12-03T20:36:35.035Z,42.85
2022-12-03T20:39:05.637Z,39.45
2022-12-03T20:41:35.934Z,44.78
2022-12-03T20:44:05.980Z,46.63
2022-12-03T20:46:34.168Z,45.88
2022-12-03T20:49:01.651Z,39.70
2022-12-03T20:51:30.608Z,41.50
2022-12-03T20:53:59.754Z,41.35
2022-12-03T20:56:36.255Z,40.20
2022-12-03T20:59:06.415Z,47.50
2022-12-03T21:01:36.031Z,40.47
2022-12-03T21:04:05.217Z,40.60
2022-12-03T21:06:35.711Z,40.92
2022-12-03T21:09:05.647Z,38.58
2022-12-03T21:11:35.940Z,39.38
2022-12-03T21:14:04.090Z,44.67
2022-12-03T21:17:05.979Z,44.05
2022-12-03T21:19:22.055Z,41.63
2022-12-03T21:21:49.393Z,40.75
2022-12-03T21:24:17.241Z,52.50
2022-12-03T21:26:44.612Z,39.38
2022-12-03T21:29:11.963Z,40.15
2022-12-03T21:31:39.903Z,39.03
2022-12-03T21:34:08.576Z,40.97
2022-12-03T21:36:36.051Z,43.88
2022-12-03T21:39:05.354Z,39.92
2022-12-03T21:41:32.942Z,39.58
2022-12-03T21:44:00.202Z,39.95
2022-12-03T21:47:11.221Z,39.67
2022-12-03T21:49:16.247Z,37.22
2022-12-03T21:51:43.531Z,38.28
2022-12-03T21:54:11.150Z,41.08
2022-12-03T21:56:39.130Z,37.70
2022-12-03T21:59:06.386Z,39.08
2022-12-03T22:01:34.092Z,38.25
2022-12-03T22:04:01.794Z,39.40
2022-12-03T22:06:29.075Z,33.05
2022-12-03T22:08:56.358Z,33.92
2022-12-03T22:11:24.369Z,34.47
2022-12-03T22:13:52.452Z,33.10
2022-12-03T22:16:21.597Z,34.78
2022-12-03T22:18:49.813Z,34.38
2022-12-03T22:21:20.009Z,30.05
2022-12-03T22:23:47.387Z,31.30
2022-12-03T22:26:18.261Z,32.85
2022-12-03T22:28:48.102Z,32.25
2022-12-03T22:31:16.759Z,33.10
2022-12-03T22:33:48.136Z,31.73
2022-12-03T22:36:20.912Z,33.17
2022-12-03T22:38:50.872Z,29.95
2022-12-03T22:41:19.032Z,30.80
2022-12-03T22:43:47.776Z,29.63
2022-12-03T22:46:16.787Z,30.30
2022-12-03T22:48:45.664Z,30.65
2022-12-03T22:51:22.128Z,27.60
2022-12-03T22:54:01.954Z,29.88
